sensor_id;sensor_type;location;lat;lon;timestamp;P1;durP1;ratioP1;P2;durP2;ratioP2
65533;SDS011;53640;55.838;37.184;2023-04-03T00:00:00;3.50;;;2.83;;
65533;SDS011;53640;55.838;37.184;2023-04-03T00:02:32;3.90;;;2.60;;
65533;SDS011;53640;55.838;37.184;2023-04-03T00:04:58;2.95;;;2.35;;
65533;SDS011;53640;55.838;37.184;2023-04-03T00:07:25;2.03;;;1.90;;
65533;SDS011;53640;55.838;37.184;2023-04-03T00:09:52;3.63;;;3.00;;
65533;SDS011;53640;55.838;37.184;2023-04-03T00:12:18;6.45;;;4.25;;
65533;SDS011;53640;55.838;37.184;2023-04-03T00:14:44;8.63;;;5.80;;
65533;SDS011;53640;55.838;37.184;2023-04-03T00:17:11;9.63;;;7.32;;
65533;SDS011;53640;55.838;37.184;2023-04-03T00:19:37;13.75;;;7.50;;
65533;SDS011;53640;55.838;37.184;2023-04-03T00:22:03;11.25;;;8.20;;
65533;SDS011;53640;55.838;37.184;2023-04-03T00:24:31;10.63;;;7.57;;
65533;SDS011;53640;55.838;37.184;2023-04-03T00:26:57;11.55;;;7.97;;
65533;SDS011;53640;55.838;37.184;2023-04-03T00:29:24;10.43;;;7.70;;
65533;SDS011;53640;55.838;37.184;2023-04-03T00:31:50;10.93;;;6.95;;
65533;SDS011;53640;55.838;37.184;2023-04-03T00:34:16;7.65;;;6.85;;
65533;SDS011;53640;55.838;37.184;2023-04-03T00:36:43;10.77;;;7.07;;
65533;SDS011;53640;55.838;37.184;2023-04-03T00:39:10;7.90;;;6.63;;
65533;SDS011;53640;55.838;37.184;2023-04-03T00:41:38;11.10;;;7.85;;
65533;SDS011;53640;55.838;37.184;2023-04-03T00:46:48;3.97;;;3.58;;
65533;SDS011;53640;55.838;37.184;2023-04-03T00:49:14;3.40;;;3.10;;
65533;SDS011;53640;55.838;37.184;2023-04-03T00:51:41;4.93;;;3.97;;
65533;SDS011;53640;55.838;37.184;2023-04-03T00:54:07;5.90;;;3.38;;
65533;SDS011;53640;55.838;37.184;2023-04-03T00:56:34;3.25;;;2.80;;
65533;SDS011;53640;55.838;37.184;2023-04-03T00:59:13;3.28;;;2.90;;
65533;SDS011;53640;55.838;37.184;2023-04-03T01:01:43;7.00;;;5.35;;
65533;SDS011;53640;55.838;37.184;2023-04-03T01:04:29;7.22;;;5.68;;
65533;SDS011;53640;55.838;37.184;2023-04-03T01:09:45;6.68;;;5.10;;
65533;SDS011;53640;55.838;37.184;2023-04-03T01:14:49;9.57;;;5.93;;
65533;SDS011;53640;55.838;37.184;2023-04-03T01:25:15;6.18;;;4.85;;
65533;SDS011;53640;55.838;37.184;2023-04-03T01:27:42;8.25;;;4.72;;
65533;SDS011;53640;55.838;37.184;2023-04-03T01:30:08;6.30;;;4.70;;
65533;SDS011;53640;55.838;37.184;2023-04-03T01:32:36;6.30;;;5.20;;
65533;SDS011;53640;55.838;37.184;2023-04-03T01:35:02;8.02;;;5.28;;
65533;SDS011;53640;55.838;37.184;2023-04-03T01:37:30;5.50;;;4.05;;
65533;SDS011;53640;55.838;37.184;2023-04-03T01:39:58;6.90;;;5.03;;
65533;SDS011;53640;55.838;37.184;2023-04-03T01:42:24;5.55;;;4.50;;
65533;SDS011;53640;55.838;37.184;2023-04-03T01:44:51;5.55;;;3.92;;
65533;SDS011;53640;55.838;37.184;2023-04-03T01:47:19;6.55;;;4.68;;
65533;SDS011;53640;55.838;37.184;2023-04-03T01:49:47;7.43;;;4.45;;
65533;SDS011;53640;55.838;37.184;2023-04-03T01:52:13;4.95;;;4.13;;
65533;SDS011;53640;55.838;37.184;2023-04-03T01:54:40;5.13;;;4.50;;
65533;SDS011;53640;55.838;37.184;2023-04-03T01:57:06;9.40;;;5.80;;
65533;SDS011;53640;55.838;37.184;2023-04-03T01:59:33;7.82;;;6.18;;
65533;SDS011;53640;55.838;37.184;2023-04-03T02:02:00;8.38;;;5.13;;
65533;SDS011;53640;55.838;37.184;2023-04-03T02:04:27;5.20;;;4.45;;
65533;SDS011;53640;55.838;37.184;2023-04-03T02:06:53;7.78;;;6.32;;
65533;SDS011;53640;55.838;37.184;2023-04-03T02:09:20;11.18;;;6.63;;
65533;SDS011;53640;55.838;37.184;2023-04-03T02:11:46;8.45;;;6.35;;
65533;SDS011;53640;55.838;37.184;2023-04-03T02:14:13;8.45;;;5.78;;
65533;SDS011;53640;55.838;37.184;2023-04-03T02:17:00;8.68;;;6.60;;
65533;SDS011;53640;55.838;37.184;2023-04-03T02:19:30;7.22;;;5.43;;
65533;SDS011;53640;55.838;37.184;2023-04-03T02:21:57;6.30;;;5.55;;
65533;SDS011;53640;55.838;37.184;2023-04-03T02:24:24;7.63;;;5.68;;
65533;SDS011;53640;55.838;37.184;2023-04-03T02:26:50;6.80;;;5.38;;
65533;SDS011;53640;55.838;37.184;2023-04-03T02:29:17;7.55;;;5.03;;
65533;SDS011;53640;55.838;37.184;2023-04-03T02:31:43;6.55;;;4.00;;
65533;SDS011;53640;55.838;37.184;2023-04-03T02:34:09;7.10;;;4.95;;
65533;SDS011;53640;55.838;37.184;2023-04-03T02:36:37;6.13;;;4.90;;
65533;SDS011;53640;55.838;37.184;2023-04-03T02:39:07;4.32;;;3.92;;
65533;SDS011;53640;55.838;37.184;2023-04-03T02:41:35;6.68;;;3.67;;
65533;SDS011;53640;55.838;37.184;2023-04-03T02:44:04;4.82;;;3.55;;
65533;SDS011;53640;55.838;37.184;2023-04-03T02:46:32;5.57;;;3.47;;
65533;SDS011;53640;55.838;37.184;2023-04-03T02:48:59;3.55;;;3.15;;
65533;SDS011;53640;55.838;37.184;2023-04-03T02:51:25;3.72;;;2.85;;
65533;SDS011;53640;55.838;37.184;2023-04-03T02:53:53;3.33;;;2.40;;
65533;SDS011;53640;55.838;37.184;2023-04-03T02:56:24;3.40;;;3.10;;
65533;SDS011;53640;55.838;37.184;2023-04-03T02:58:50;3.50;;;2.75;;
65533;SDS011;53640;55.838;37.184;2023-04-03T03:01:18;4.20;;;2.85;;
65533;SDS011;53640;55.838;37.184;2023-04-03T03:03:45;3.72;;;3.35;;
65533;SDS011;53640;55.838;37.184;2023-04-03T03:06:15;3.65;;;2.90;;
65533;SDS011;53640;55.838;37.184;2023-04-03T03:08:43;3.67;;;3.03;;
65533;SDS011;53640;55.838;37.184;2023-04-03T03:11:10;3.30;;;2.70;;
65533;SDS011;53640;55.838;37.184;2023-04-03T03:13:36;3.20;;;2.90;;
65533;SDS011;53640;55.838;37.184;2023-04-03T03:16:03;3.90;;;3.00;;
65533;SDS011;53640;55.838;37.184;2023-04-03T03:18:30;3.40;;;3.10;;
65533;SDS011;53640;55.838;37.184;2023-04-03T03:20:57;6.55;;;4.40;;
65533;SDS011;53640;55.838;37.184;2023-04-03T03:23:25;3.88;;;3.25;;
65533;SDS011;53640;55.838;37.184;2023-04-03T03:26:00;5.93;;;3.20;;
65533;SDS011;53640;55.838;37.184;2023-04-03T03:28:28;5.57;;;3.58;;
65533;SDS011;53640;55.838;37.184;2023-04-03T03:30:56;5.97;;;3.75;;
65533;SDS011;53640;55.838;37.184;2023-04-03T03:33:23;4.07;;;3.65;;
65533;SDS011;53640;55.838;37.184;2023-04-03T03:35:52;6.55;;;3.97;;
65533;SDS011;53640;55.838;37.184;2023-04-03T03:38:19;7.15;;;5.00;;
65533;SDS011;53640;55.838;37.184;2023-04-03T03:40:47;9.48;;;6.68;;
65533;SDS011;53640;55.838;37.184;2023-04-03T03:43:17;8.05;;;5.82;;
65533;SDS011;53640;55.838;37.184;2023-04-03T03:45:49;11.63;;;6.03;;
65533;SDS011;53640;55.838;37.184;2023-04-03T03:48:17;11.23;;;6.60;;
65533;SDS011;53640;55.838;37.184;2023-04-03T03:50:44;8.77;;;5.40;;
65533;SDS011;53640;55.838;37.184;2023-04-03T03:53:11;6.30;;;4.20;;
65533;SDS011;53640;55.838;37.184;2023-04-03T03:55:38;6.03;;;3.80;;
65533;SDS011;53640;55.838;37.184;2023-04-03T03:58:04;5.65;;;3.50;;
65533;SDS011;53640;55.838;37.184;2023-04-03T04:00:36;5.93;;;4.00;;
65533;SDS011;53640;55.838;37.184;2023-04-03T04:03:03;4.38;;;3.80;;
65533;SDS011;53640;55.838;37.184;2023-04-03T04:05:31;5.78;;;3.45;;
65533;SDS011;53640;55.838;37.184;2023-04-03T04:08:00;5.32;;;3.60;;
65533;SDS011;53640;55.838;37.184;2023-04-03T04:10:27;3.47;;;3.03;;
65533;SDS011;53640;55.838;37.184;2023-04-03T04:12:55;5.07;;;3.03;;
65533;SDS011;53640;55.838;37.184;2023-04-03T04:15:24;6.47;;;4.45;;
65533;SDS011;53640;55.838;37.184;2023-04-03T04:17:52;7.75;;;5.03;;
65533;SDS011;53640;55.838;37.184;2023-04-03T04:20:19;5.70;;;4.55;;
65533;SDS011;53640;55.838;37.184;2023-04-03T04:22:47;7.07;;;4.35;;
65533;SDS011;53640;55.838;37.184;2023-04-03T04:25:13;7.20;;;4.60;;
65533;SDS011;53640;55.838;37.184;2023-04-03T04:27:40;6.63;;;5.03;;
65533;SDS011;53640;55.838;37.184;2023-04-03T04:30:08;6.53;;;4.85;;
65533;SDS011;53640;55.838;37.184;2023-04-03T04:32:36;6.40;;;4.57;;
65533;SDS011;53640;55.838;37.184;2023-04-03T04:35:04;8.00;;;5.20;;
65533;SDS011;53640;55.838;37.184;2023-04-03T04:37:33;10.50;;;5.70;;
65533;SDS011;53640;55.838;37.184;2023-04-03T04:40:00;9.25;;;6.55;;
65533;SDS011;53640;55.838;37.184;2023-04-03T04:42:30;10.90;;;7.68;;
65533;SDS011;53640;55.838;37.184;2023-04-03T04:44:56;10.65;;;7.40;;
65533;SDS011;53640;55.838;37.184;2023-04-03T04:47:23;12.48;;;8.57;;
65533;SDS011;53640;55.838;37.184;2023-04-03T04:49:50;10.93;;;8.05;;
65533;SDS011;53640;55.838;37.184;2023-04-03T04:52:17;8.40;;;6.32;;
65533;SDS011;53640;55.838;37.184;2023-04-03T04:54:44;9.40;;;6.63;;
65533;SDS011;53640;55.838;37.184;2023-04-03T04:57:11;15.05;;;9.48;;
65533;SDS011;53640;55.838;37.184;2023-04-03T04:59:37;16.42;;;9.63;;
65533;SDS011;53640;55.838;37.184;2023-04-03T05:02:06;14.43;;;10.68;;
65533;SDS011;53640;55.838;37.184;2023-04-03T05:04:32;16.35;;;9.20;;
65533;SDS011;53640;55.838;37.184;2023-04-03T05:07:05;12.73;;;8.93;;
65533;SDS011;53640;55.838;37.184;2023-04-03T05:09:35;14.88;;;8.77;;
65533;SDS011;53640;55.838;37.184;2023-04-03T05:12:01;11.35;;;8.25;;
65533;SDS011;53640;55.838;37.184;2023-04-03T05:14:33;11.00;;;7.45;;
65533;SDS011;53640;55.838;37.184;2023-04-03T05:17:05;9.32;;;6.88;;
65533;SDS011;53640;55.838;37.184;2023-04-03T05:19:35;15.20;;;10.05;;
65533;SDS011;53640;55.838;37.184;2023-04-03T05:22:05;15.50;;;9.40;;
65533;SDS011;53640;55.838;37.184;2023-04-03T05:24:32;11.10;;;7.68;;
65533;SDS011;53640;55.838;37.184;2023-04-03T05:26:59;17.25;;;11.05;;
65533;SDS011;53640;55.838;37.184;2023-04-03T05:29:26;16.60;;;10.32;;
65533;SDS011;53640;55.838;37.184;2023-04-03T05:31:53;16.23;;;10.20;;
65533;SDS011;53640;55.838;37.184;2023-04-03T05:34:20;11.57;;;8.68;;
65533;SDS011;53640;55.838;37.184;2023-04-03T05:36:50;10.18;;;7.28;;
65533;SDS011;53640;55.838;37.184;2023-04-03T05:39:17;8.82;;;6.00;;
65533;SDS011;53640;55.838;37.184;2023-04-03T05:41:46;10.32;;;7.22;;
65533;SDS011;53640;55.838;37.184;2023-04-03T05:44:12;15.20;;;10.35;;
65533;SDS011;53640;55.838;37.184;2023-04-03T05:46:40;18.40;;;12.60;;
65533;SDS011;53640;55.838;37.184;2023-04-03T05:49:09;33.60;;;13.05;;
65533;SDS011;53640;55.838;37.184;2023-04-03T05:51:37;29.15;;;11.77;;
65533;SDS011;53640;55.838;37.184;2023-04-03T05:54:20;17.70;;;10.15;;
65533;SDS011;53640;55.838;37.184;2023-04-03T05:56:50;23.57;;;12.03;;
65533;SDS011;53640;55.838;37.184;2023-04-03T05:59:20;25.58;;;11.98;;
65533;SDS011;53640;55.838;37.184;2023-04-03T06:01:50;27.45;;;12.20;;
65533;SDS011;53640;55.838;37.184;2023-04-03T06:04:17;23.50;;;10.95;;
65533;SDS011;53640;55.838;37.184;2023-04-03T06:06:48;15.32;;;8.57;;
65533;SDS011;53640;55.838;37.184;2023-04-03T06:09:20;22.13;;;9.82;;
65533;SDS011;53640;55.838;37.184;2023-04-03T06:11:48;19.10;;;9.73;;
65533;SDS011;53640;55.838;37.184;2023-04-03T06:14:15;19.85;;;9.15;;
65533;SDS011;53640;55.838;37.184;2023-04-03T06:16:42;15.35;;;10.02;;
65533;SDS011;53640;55.838;37.184;2023-04-03T06:19:09;21.65;;;10.73;;
65533;SDS011;53640;55.838;37.184;2023-04-03T06:21:41;17.35;;;10.40;;
65533;SDS011;53640;55.838;37.184;2023-04-03T06:24:09;13.85;;;8.80;;
65533;SDS011;53640;55.838;37.184;2023-04-03T06:26:39;24.83;;;11.20;;
65533;SDS011;53640;55.838;37.184;2023-04-03T06:29:06;21.77;;;10.32;;
65533;SDS011;53640;55.838;37.184;2023-04-03T06:31:33;13.45;;;8.35;;
65533;SDS011;53640;55.838;37.184;2023-04-03T06:34:04;11.43;;;6.95;;
65533;SDS011;53640;55.838;37.184;2023-04-03T06:36:33;10.35;;;6.68;;
65533;SDS011;53640;55.838;37.184;2023-04-03T06:39:01;12.93;;;8.85;;
65533;SDS011;53640;55.838;37.184;2023-04-03T06:41:28;17.05;;;8.10;;
65533;SDS011;53640;55.838;37.184;2023-04-03T06:43:55;8.80;;;6.75;;
65533;SDS011;53640;55.838;37.184;2023-04-03T06:46:25;15.07;;;9.45;;
65533;SDS011;53640;55.838;37.184;2023-04-03T06:48:52;12.50;;;7.45;;
65533;SDS011;53640;55.838;37.184;2023-04-03T06:51:23;15.63;;;9.15;;
65533;SDS011;53640;55.838;37.184;2023-04-03T06:53:52;8.98;;;6.63;;
65533;SDS011;53640;55.838;37.184;2023-04-03T06:56:21;14.73;;;9.15;;
65533;SDS011;53640;55.838;37.184;2023-04-03T06:58:49;9.85;;;6.63;;
65533;SDS011;53640;55.838;37.184;2023-04-03T07:01:17;10.32;;;6.43;;
65533;SDS011;53640;55.838;37.184;2023-04-03T07:03:47;15.35;;;7.60;;
65533;SDS011;53640;55.838;37.184;2023-04-03T07:06:15;10.00;;;6.78;;
65533;SDS011;53640;55.838;37.184;2023-04-03T07:08:42;10.25;;;6.25;;
65533;SDS011;53640;55.838;37.184;2023-04-03T07:11:09;9.77;;;5.72;;
65533;SDS011;53640;55.838;37.184;2023-04-03T07:13:37;8.68;;;5.38;;
65533;SDS011;53640;55.838;37.184;2023-04-03T07:16:04;16.05;;;8.05;;
65533;SDS011;53640;55.838;37.184;2023-04-03T07:18:33;10.38;;;7.10;;
65533;SDS011;53640;55.838;37.184;2023-04-03T07:29:40;13.80;;;8.40;;
65533;SDS011;53640;55.838;37.184;2023-04-03T07:32:06;23.42;;;9.88;;
65533;SDS011;53640;55.838;37.184;2023-04-03T07:34:32;21.48;;;8.60;;
65533;SDS011;53640;55.838;37.184;2023-04-03T07:36:59;13.25;;;7.05;;
65533;SDS011;53640;55.838;37.184;2023-04-03T07:39:25;20.33;;;9.00;;
65533;SDS011;53640;55.838;37.184;2023-04-03T07:41:52;11.20;;;6.68;;
65533;SDS011;53640;55.838;37.184;2023-04-03T07:44:19;10.40;;;6.38;;
65533;SDS011;53640;55.838;37.184;2023-04-03T07:46:45;17.00;;;7.65;;
65533;SDS011;53640;55.838;37.184;2023-04-03T07:49:12;12.93;;;6.68;;
65533;SDS011;53640;55.838;37.184;2023-04-03T07:51:38;14.77;;;7.97;;
65533;SDS011;53640;55.838;37.184;2023-04-03T07:54:05;11.70;;;6.82;;
65533;SDS011;53640;55.838;37.184;2023-04-03T07:56:31;12.15;;;6.30;;
65533;SDS011;53640;55.838;37.184;2023-04-03T07:58:58;23.20;;;10.75;;
65533;SDS011;53640;55.838;37.184;2023-04-03T08:01:24;18.58;;;9.07;;
65533;SDS011;53640;55.838;37.184;2023-04-03T08:03:51;22.73;;;8.60;;
65533;SDS011;53640;55.838;37.184;2023-04-03T08:06:17;23.00;;;10.23;;
65533;SDS011;53640;55.838;37.184;2023-04-03T08:08:43;18.90;;;8.35;;
65533;SDS011;53640;55.838;37.184;2023-04-03T08:11:10;33.97;;;10.98;;
65533;SDS011;53640;55.838;37.184;2023-04-03T08:13:37;28.00;;;11.05;;
65533;SDS011;53640;55.838;37.184;2023-04-03T08:16:11;17.65;;;9.48;;
65533;SDS011;53640;55.838;37.184;2023-04-03T08:18:43;36.17;;;13.02;;
65533;SDS011;53640;55.838;37.184;2023-04-03T08:21:16;22.25;;;10.35;;
65533;SDS011;53640;55.838;37.184;2023-04-03T08:23:42;22.48;;;9.50;;
65533;SDS011;53640;55.838;37.184;2023-04-03T08:26:11;17.40;;;8.80;;
65533;SDS011;53640;55.838;37.184;2023-04-03T08:28:39;16.23;;;8.40;;
65533;SDS011;53640;55.838;37.184;2023-04-03T08:31:07;16.25;;;8.25;;
65533;SDS011;53640;55.838;37.184;2023-04-03T08:33:38;17.27;;;9.52;;
65533;SDS011;53640;55.838;37.184;2023-04-03T08:36:15;14.07;;;8.32;;
65533;SDS011;53640;55.838;37.184;2023-04-03T08:38:45;16.75;;;8.90;;
65533;SDS011;53640;55.838;37.184;2023-04-03T08:41:14;18.08;;;9.40;;
65533;SDS011;53640;55.838;37.184;2023-04-03T08:52:01;14.30;;;7.50;;
65533;SDS011;53640;55.838;37.184;2023-04-03T08:54:35;18.02;;;8.45;;
65533;SDS011;53640;55.838;37.184;2023-04-03T08:57:07;11.73;;;7.45;;
65533;SDS011;53640;55.838;37.184;2023-04-03T08:59:36;12.73;;;7.38;;
65533;SDS011;53640;55.838;37.184;2023-04-03T09:02:12;15.07;;;6.40;;
65533;SDS011;53640;55.838;37.184;2023-04-03T09:05:11;18.85;;;7.07;;
65533;SDS011;53640;55.838;37.184;2023-04-03T09:07:47;12.95;;;7.63;;
65533;SDS011;53640;55.838;37.184;2023-04-03T09:10:23;18.83;;;7.85;;
65533;SDS011;53640;55.838;37.184;2023-04-03T09:15:53;11.10;;;5.97;;
65533;SDS011;53640;55.838;37.184;2023-04-03T09:18:36;18.38;;;7.75;;
65533;SDS011;53640;55.838;37.184;2023-04-03T09:21:23;14.73;;;7.68;;
65533;SDS011;53640;55.838;37.184;2023-04-03T09:24:01;9.57;;;6.47;;
65533;SDS011;53640;55.838;37.184;2023-04-03T09:26:40;17.77;;;8.23;;
65533;SDS011;53640;55.838;37.184;2023-04-03T09:29:13;12.05;;;7.20;;
65533;SDS011;53640;55.838;37.184;2023-04-03T09:31:44;12.77;;;7.50;;
65533;SDS011;53640;55.838;37.184;2023-04-03T09:34:24;15.98;;;8.20;;
65533;SDS011;53640;55.838;37.184;2023-04-03T09:36:54;17.10;;;6.97;;
65533;SDS011;53640;55.838;37.184;2023-04-03T09:39:24;17.85;;;7.53;;
65533;SDS011;53640;55.838;37.184;2023-04-03T09:44:30;8.57;;;6.00;;
65533;SDS011;53640;55.838;37.184;2023-04-03T09:46:59;10.80;;;6.05;;
65533;SDS011;53640;55.838;37.184;2023-04-03T09:49:42;10.25;;;5.57;;
65533;SDS011;53640;55.838;37.184;2023-04-03T09:55:21;13.20;;;7.63;;
65533;SDS011;53640;55.838;37.184;2023-04-03T09:57:53;19.98;;;8.70;;
65533;SDS011;53640;55.838;37.184;2023-04-03T10:00:27;18.13;;;7.30;;
65533;SDS011;53640;55.838;37.184;2023-04-03T10:02:58;18.77;;;7.80;;
65533;SDS011;53640;55.838;37.184;2023-04-03T10:10:41;19.85;;;9.13;;
65533;SDS011;53640;55.838;37.184;2023-04-03T10:26:39;31.40;;;10.68;;
65533;SDS011;53640;55.838;37.184;2023-04-03T10:32:12;29.17;;;10.10;;
65533;SDS011;53640;55.838;37.184;2023-04-03T10:34:43;25.73;;;11.10;;
65533;SDS011;53640;55.838;37.184;2023-04-03T10:40:01;23.70;;;9.60;;
65533;SDS011;53640;55.838;37.184;2023-04-03T10:43:01;18.98;;;8.85;;
65533;SDS011;53640;55.838;37.184;2023-04-03T10:48:29;23.00;;;10.70;;
65533;SDS011;53640;55.838;37.184;2023-04-03T10:54:13;17.73;;;9.45;;
65533;SDS011;53640;55.838;37.184;2023-04-03T10:56:48;19.35;;;9.77;;
65533;SDS011;53640;55.838;37.184;2023-04-03T11:02:13;44.83;;;17.27;;
65533;SDS011;53640;55.838;37.184;2023-04-03T11:04:44;19.55;;;10.23;;
65533;SDS011;53640;55.838;37.184;2023-04-03T11:07:18;16.95;;;8.52;;
65533;SDS011;53640;55.838;37.184;2023-04-03T11:09:52;14.10;;;7.18;;
65533;SDS011;53640;55.838;37.184;2023-04-03T11:14:58;20.38;;;9.15;;
65533;SDS011;53640;55.838;37.184;2023-04-03T11:22:43;20.33;;;9.23;;
65533;SDS011;53640;55.838;37.184;2023-04-03T11:25:17;15.10;;;7.75;;
65533;SDS011;53640;55.838;37.184;2023-04-03T11:28:05;13.13;;;8.75;;
65533;SDS011;53640;55.838;37.184;2023-04-03T11:36:32;17.88;;;7.43;;
65533;SDS011;53640;55.838;37.184;2023-04-03T11:39:26;11.50;;;6.88;;
65533;SDS011;53640;55.838;37.184;2023-04-03T11:45:16;19.40;;;8.25;;
65533;SDS011;53640;55.838;37.184;2023-04-03T11:50:30;7.90;;;5.97;;
65533;SDS011;53640;55.838;37.184;2023-04-03T12:14:22;10.27;;;5.22;;
65533;SDS011;53640;55.838;37.184;2023-04-03T12:16:30;12.57;;;6.43;;
65533;SDS011;53640;55.838;37.184;2023-04-03T12:35:31;15.32;;;6.78;;
65533;SDS011;53640;55.838;37.184;2023-04-03T12:46:37;18.05;;;7.78;;
65533;SDS011;53640;55.838;37.184;2023-04-03T12:49:20;11.18;;;6.03;;
65533;SDS011;53640;55.838;37.184;2023-04-03T12:51:50;13.60;;;6.18;;
65533;SDS011;53640;55.838;37.184;2023-04-03T12:57:08;11.75;;;6.90;;
65533;SDS011;53640;55.838;37.184;2023-04-03T12:59:42;9.60;;;6.68;;
65533;SDS011;53640;55.838;37.184;2023-04-03T13:02:24;11.90;;;6.70;;
65533;SDS011;53640;55.838;37.184;2023-04-03T13:05:05;17.67;;;6.38;;
65533;SDS011;53640;55.838;37.184;2023-04-03T13:07:38;13.52;;;5.72;;
65533;SDS011;53640;55.838;37.184;2023-04-03T13:15:23;7.15;;;3.92;;
65533;SDS011;53640;55.838;37.184;2023-04-03T13:17:52;6.88;;;4.35;;
65533;SDS011;53640;55.838;37.184;2023-04-03T13:20:23;8.95;;;5.40;;
65533;SDS011;53640;55.838;37.184;2023-04-03T13:22:54;7.20;;;5.35;;
65533;SDS011;53640;55.838;37.184;2023-04-03T13:25:35;13.03;;;6.07;;
65533;SDS011;53640;55.838;37.184;2023-04-03T13:28:05;7.72;;;4.78;;
65533;SDS011;53640;55.838;37.184;2023-04-03T13:30:34;6.32;;;3.78;;
65533;SDS011;53640;55.838;37.184;2023-04-03T13:33:04;7.90;;;4.32;;
65533;SDS011;53640;55.838;37.184;2023-04-03T13:35:38;9.40;;;5.50;;
65533;SDS011;53640;55.838;37.184;2023-04-03T13:40:47;9.43;;;4.85;;
65533;SDS011;53640;55.838;37.184;2023-04-03T13:43:18;13.25;;;7.47;;
65533;SDS011;53640;55.838;37.184;2023-04-03T13:48:54;15.40;;;9.05;;
65533;SDS011;53640;55.838;37.184;2023-04-03T13:51:24;15.45;;;8.85;;
65533;SDS011;53640;55.838;37.184;2023-04-03T13:53:58;15.30;;;9.13;;
65533;SDS011;53640;55.838;37.184;2023-04-03T13:56:29;15.85;;;9.18;;
65533;SDS011;53640;55.838;37.184;2023-04-03T14:01:34;17.92;;;10.57;;
65533;SDS011;53640;55.838;37.184;2023-04-03T14:04:14;18.73;;;10.70;;
65533;SDS011;53640;55.838;37.184;2023-04-03T14:06:45;17.23;;;10.40;;
65533;SDS011;53640;55.838;37.184;2023-04-03T14:09:12;15.05;;;9.70;;
65533;SDS011;53640;55.838;37.184;2023-04-03T14:11:41;17.80;;;10.15;;
65533;SDS011;53640;55.838;37.184;2023-04-03T14:14:12;16.15;;;9.45;;
65533;SDS011;53640;55.838;37.184;2023-04-03T14:16:45;17.90;;;9.80;;
65533;SDS011;53640;55.838;37.184;2023-04-03T14:19:23;12.23;;;8.43;;
65533;SDS011;53640;55.838;37.184;2023-04-03T14:21:52;10.90;;;7.80;;
65533;SDS011;53640;55.838;37.184;2023-04-03T14:24:20;17.08;;;9.10;;
65533;SDS011;53640;55.838;37.184;2023-04-03T14:26:48;13.25;;;7.75;;
65533;SDS011;53640;55.838;37.184;2023-04-03T14:29:17;14.10;;;9.43;;
65533;SDS011;53640;55.838;37.184;2023-04-03T14:31:45;18.33;;;9.85;;
65533;SDS011;53640;55.838;37.184;2023-04-03T14:34:14;14.40;;;10.02;;
65533;SDS011;53640;55.838;37.184;2023-04-03T14:40:27;10.13;;;7.18;;
65533;SDS011;53640;55.838;37.184;2023-04-03T14:42:54;11.88;;;6.43;;
65533;SDS011;53640;55.838;37.184;2023-04-03T14:45:22;8.00;;;5.32;;
65533;SDS011;53640;55.838;37.184;2023-04-03T14:47:49;10.75;;;5.65;;
65533;SDS011;53640;55.838;37.184;2023-04-03T14:50:20;8.00;;;4.32;;
65533;SDS011;53640;55.838;37.184;2023-04-03T14:52:50;10.85;;;5.97;;
65533;SDS011;53640;55.838;37.184;2023-04-03T14:55:20;20.13;;;6.45;;
65533;SDS011;53640;55.838;37.184;2023-04-03T14:57:49;13.90;;;6.22;;
65533;SDS011;53640;55.838;37.184;2023-04-03T15:00:20;5.97;;;3.80;;
65533;SDS011;53640;55.838;37.184;2023-04-03T15:02:47;9.52;;;3.38;;
65533;SDS011;53640;55.838;37.184;2023-04-03T15:05:16;11.10;;;5.25;;
65533;SDS011;53640;55.838;37.184;2023-04-03T15:07:55;4.45;;;3.08;;
65533;SDS011;53640;55.838;37.184;2023-04-03T15:10:29;8.38;;;4.45;;
65533;SDS011;53640;55.838;37.184;2023-04-03T15:12:58;6.50;;;4.35;;
65533;SDS011;53640;55.838;37.184;2023-04-03T15:15:28;7.85;;;4.90;;
65533;SDS011;53640;55.838;37.184;2023-04-03T15:17:56;12.88;;;5.15;;
65533;SDS011;53640;55.838;37.184;2023-04-03T15:20:29;18.50;;;6.00;;
65533;SDS011;53640;55.838;37.184;2023-04-03T15:25:27;15.27;;;6.13;;
65533;SDS011;53640;55.838;37.184;2023-04-03T15:28:00;18.23;;;7.07;;
65533;SDS011;53640;55.838;37.184;2023-04-03T15:30:30;11.55;;;6.43;;
65533;SDS011;53640;55.838;37.184;2023-04-03T15:32:58;14.63;;;6.65;;
65533;SDS011;53640;55.838;37.184;2023-04-03T15:35:24;15.60;;;6.07;;
65533;SDS011;53640;55.838;37.184;2023-04-03T15:37:59;11.55;;;6.10;;
65533;SDS011;53640;55.838;37.184;2023-04-03T15:40:29;14.43;;;5.70;;
65533;SDS011;53640;55.838;37.184;2023-04-03T15:42:55;11.07;;;5.38;;
65533;SDS011;53640;55.838;37.184;2023-04-03T15:45:21;10.05;;;5.28;;
65533;SDS011;53640;55.838;37.184;2023-04-03T15:47:49;12.50;;;5.95;;
65533;SDS011;53640;55.838;37.184;2023-04-03T15:50:15;10.32;;;5.53;;
65533;SDS011;53640;55.838;37.184;2023-04-03T15:52:45;12.63;;;6.60;;
65533;SDS011;53640;55.838;37.184;2023-04-03T15:55:47;12.45;;;6.03;;
65533;SDS011;53640;55.838;37.184;2023-04-03T15:58:28;15.88;;;7.55;;
65533;SDS011;53640;55.838;37.184;2023-04-03T16:01:03;15.82;;;7.32;;
65533;SDS011;53640;55.838;37.184;2023-04-03T16:03:46;10.13;;;6.93;;
65533;SDS011;53640;55.838;37.184;2023-04-03T16:06:29;18.73;;;7.88;;
65533;SDS011;53640;55.838;37.184;2023-04-03T16:09:23;14.05;;;8.63;;
65533;SDS011;53640;55.838;37.184;2023-04-03T16:11:57;16.05;;;8.63;;
65533;SDS011;53640;55.838;37.184;2023-04-03T16:14:26;12.85;;;8.40;;
65533;SDS011;53640;55.838;37.184;2023-04-03T16:17:15;17.10;;;9.25;;
65533;SDS011;53640;55.838;37.184;2023-04-03T16:19:41;16.73;;;8.60;;
65533;SDS011;53640;55.838;37.184;2023-04-03T16:22:08;17.58;;;9.25;;
65533;SDS011;53640;55.838;37.184;2023-04-03T16:24:35;13.02;;;8.30;;
65533;SDS011;53640;55.838;37.184;2023-04-03T16:27:06;14.15;;;9.07;;
65533;SDS011;53640;55.838;37.184;2023-04-03T16:29:32;15.80;;;9.38;;
65533;SDS011;53640;55.838;37.184;2023-04-03T16:31:59;13.98;;;9.23;;
65533;SDS011;53640;55.838;37.184;2023-04-03T16:34:26;14.65;;;9.07;;
65533;SDS011;53640;55.838;37.184;2023-04-03T16:36:52;14.02;;;8.98;;
65533;SDS011;53640;55.838;37.184;2023-04-03T16:39:19;15.00;;;9.18;;
65533;SDS011;53640;55.838;37.184;2023-04-03T16:41:46;19.55;;;9.05;;
65533;SDS011;53640;55.838;37.184;2023-04-03T16:44:14;19.27;;;10.43;;
65533;SDS011;53640;55.838;37.184;2023-04-03T16:46:41;12.98;;;9.68;;
65533;SDS011;53640;55.838;37.184;2023-04-03T16:49:07;14.30;;;9.30;;
65533;SDS011;53640;55.838;37.184;2023-04-03T16:51:33;14.30;;;9.20;;
65533;SDS011;53640;55.838;37.184;2023-04-03T16:54:04;16.08;;;9.43;;
65533;SDS011;53640;55.838;37.184;2023-04-03T16:56:31;15.15;;;9.77;;
65533;SDS011;53640;55.838;37.184;2023-04-03T16:58:59;16.17;;;9.60;;
65533;SDS011;53640;55.838;37.184;2023-04-03T17:01:25;15.40;;;9.88;;
65533;SDS011;53640;55.838;37.184;2023-04-03T17:03:54;14.90;;;9.75;;
65533;SDS011;53640;55.838;37.184;2023-04-03T17:06:22;11.02;;;8.73;;
65533;SDS011;53640;55.838;37.184;2023-04-03T17:08:49;12.90;;;9.27;;
65533;SDS011;53640;55.838;37.184;2023-04-03T17:11:29;17.42;;;10.30;;
65533;SDS011;53640;55.838;37.184;2023-04-03T17:13:56;13.77;;;9.60;;
65533;SDS011;53640;55.838;37.184;2023-04-03T17:16:26;14.10;;;9.20;;
65533;SDS011;53640;55.838;37.184;2023-04-03T17:18:58;12.57;;;9.15;;
65533;SDS011;53640;55.838;37.184;2023-04-03T17:21:26;12.88;;;9.38;;
65533;SDS011;53640;55.838;37.184;2023-04-03T17:23:59;13.25;;;8.30;;